Terminal Aerodrome Forecast
Issued by NWS Kansas City/Pleasant Hill, MO

Home | Current Version | Previous Version | Text Only | Print | Product List | Glossary On
Versions: 1 2 3 4 5 6 7 8 9 10 11 12 13 14 15 16 17 18 19 20 21 22
000
FTUS43 KEAX 040520
TAFMCI
TAF
KMCI 040520Z 0406/0506 09008KT P6SM SCT080
     FM042100 15008KT P6SM VCTS SCT050CB
     FM050000 16007KT 4SM -TSRA SCT040CB=

USA.gov is the U.S. government's official web portal to all federal, state and local government web resources and services.